sensor_id;sensor_type;location;lat;lon;timestamp;temperature;humidity
40249;DHT22;25969;49.970;11.062;2024-02-23T05:04:42;4.80;99.90
40249;DHT22;25969;49.970;11.062;2024-02-23T05:14:42;4.70;99.90
40249;DHT22;25969;49.970;11.062;2024-02-23T05:24:43;4.70;99.90
40249;DHT22;25969;49.970;11.062;2024-02-23T05:34:45;4.60;99.90
40249;DHT22;25969;49.970;11.062;2024-02-23T05:44:47;4.40;99.90
40249;DHT22;25969;49.970;11.062;2024-02-23T05:54:58;4.30;99.90
40249;DHT22;25969;49.970;11.062;2024-02-23T06:05:00;4.30;99.90
40249;DHT22;25969;49.970;11.062;2024-02-23T06:15:01;4.30;99.90
40249;DHT22;25969;49.970;11.062;2024-02-23T06:25:02;4.20;99.90
40249;DHT22;25969;49.970;11.062;2024-02-23T06:35:03;4.10;99.90
40249;DHT22;25969;49.970;11.062;2024-02-23T06:45:04;4.30;99.90
40249;DHT22;25969;49.970;11.062;2024-02-23T06:55:05;4.30;99.90
40249;DHT22;25969;49.970;11.062;2024-02-23T07:05:06;4.40;99.90
40249;DHT22;25969;49.970;11.062;2024-02-23T07:15:07;4.40;99.90
40249;DHT22;25969;49.970;11.062;2024-02-23T07:25:08;4.40;99.90
40249;DHT22;25969;49.970;11.062;2024-02-23T07:35:09;4.50;99.90
40249;DHT22;25969;49.970;11.062;2024-02-23T07:45:10;4.50;99.90
40249;DHT22;25969;49.970;11.062;2024-02-23T07:55:11;4.50;99.90
40249;DHT22;25969;49.970;11.062;2024-02-23T08:05:12;4.50;99.90
40249;DHT22;25969;49.970;11.062;2024-02-23T08:15:13;4.80;99.90
40249;DHT22;25969;49.970;11.062;2024-02-23T08:25:13;4.80;99.90
40249;DHT22;25969;49.970;11.062;2024-02-23T08:35:14;5.00;99.90
40249;DHT22;25969;49.970;11.062;2024-02-23T08:45:15;5.30;99.90
40249;DHT22;25969;49.970;11.062;2024-02-23T08:55:16;5.30;99.90
40249;DHT22;25969;49.970;11.062;2024-02-23T09:05:18;5.60;99.90
40249;DHT22;25969;49.970;11.062;2024-02-23T09:15:18;5.80;99.90
40249;DHT22;25969;49.970;11.062;2024-02-23T09:25:19;5.70;99.90
40249;DHT22;25969;49.970;11.062;2024-02-23T09:35:20;6.10;99.90
40249;DHT22;25969;49.970;11.062;2024-02-23T09:45:21;5.90;99.90
40249;DHT22;25969;49.970;11.062;2024-02-23T09:55:22;5.70;99.90
40249;DHT22;25969;49.970;11.062;2024-02-23T10:05:29;6.00;99.90
40249;DHT22;25969;49.970;11.062;2024-02-23T10:15:30;6.40;99.90
40249;DHT22;25969;49.970;11.062;2024-02-23T10:25:34;6.00;99.90
40249;DHT22;25969;49.970;11.062;2024-02-23T10:35:38;6.40;99.90
40249;DHT22;25969;49.970;11.062;2024-02-23T10:45:41;6.10;99.90
40249;DHT22;25969;49.970;11.062;2024-02-23T10:55:43;6.40;99.60
40249;DHT22;25969;49.970;11.062;2024-02-23T11:05:48;6.30;99.90
40249;DHT22;25969;49.970;11.062;2024-02-23T11:15:49;6.70;99.40
40249;DHT22;25969;49.970;11.062;2024-02-23T11:36:07;6.40;99.50
40249;DHT22;25969;49.970;11.062;2024-02-23T11:46:08;6.90;98.40
40249;DHT22;25969;49.970;11.062;2024-02-23T11:56:10;6.60;98.60
40249;DHT22;25969;49.970;11.062;2024-02-23T12:06:11;6.20;99.70
40249;DHT22;25969;49.970;11.062;2024-02-23T12:16:11;6.40;99.20
40249;DHT22;25969;49.970;11.062;2024-02-23T12:26:14;6.50;98.90
40249;DHT22;25969;49.970;11.062;2024-02-23T12:36:15;6.50;99.20
40249;DHT22;25969;49.970;11.062;2024-02-23T12:46:15;6.30;98.10
40249;DHT22;25969;49.970;11.062;2024-02-23T12:56:16;6.50;97.10
40249;DHT22;25969;49.970;11.062;2024-02-23T13:06:18;6.70;96.50
40249;DHT22;25969;49.970;11.062;2024-02-23T13:16:20;6.90;96.10
40249;DHT22;25969;49.970;11.062;2024-02-23T13:26:21;6.70;94.80
40249;DHT22;25969;49.970;11.062;2024-02-23T13:36:22;7.20;94.60
40249;DHT22;25969;49.970;11.062;2024-02-23T13:46:22;7.20;94.60
40249;DHT22;25969;49.970;11.062;2024-02-23T13:56:23;7.40;93.50
40249;DHT22;25969;49.970;11.062;2024-02-23T14:06:24;7.30;94.30
40249;DHT22;25969;49.970;11.062;2024-02-23T14:16:24;7.40;94.40
40249;DHT22;25969;49.970;11.062;2024-02-23T14:26:25;7.00;94.80
40249;DHT22;25969;49.970;11.062;2024-02-23T14:36:26;6.90;95.50
40249;DHT22;25969;49.970;11.062;2024-02-23T14:46:27;7.10;95.50
40249;DHT22;25969;49.970;11.062;2024-02-23T14:56:27;7.10;95.40
40249;DHT22;25969;49.970;11.062;2024-02-23T15:06:28;6.80;95.60
40249;DHT22;25969;49.970;11.062;2024-02-23T15:16:29;6.60;95.60
40249;DHT22;25969;49.970;11.062;2024-02-23T15:26:33;6.40;95.70
40249;DHT22;25969;49.970;11.062;2024-02-23T15:36:33;6.50;94.00
40249;DHT22;25969;49.970;11.062;2024-02-23T15:46:34;6.40;94.70
40249;DHT22;25969;49.970;11.062;2024-02-23T15:56:35;6.30;93.80
40249;DHT22;25969;49.970;11.062;2024-02-23T16:06:36;6.20;94.30
40249;DHT22;25969;49.970;11.062;2024-02-23T16:16:37;6.00;95.00
40249;DHT22;25969;49.970;11.062;2024-02-23T16:26:40;6.00;95.40
40249;DHT22;25969;49.970;11.062;2024-02-23T16:36:41;6.30;94.40
40249;DHT22;25969;49.970;11.062;2024-02-23T16:46:43;6.50;95.10
40249;DHT22;25969;49.970;11.062;2024-02-23T16:56:44;5.80;95.40
40249;DHT22;25969;49.970;11.062;2024-02-23T17:06:44;5.50;96.40
40249;DHT22;25969;49.970;11.062;2024-02-23T17:16:45;5.40;97.20
40249;DHT22;25969;49.970;11.062;2024-02-23T17:26:46;5.40;97.60
40249;DHT22;25969;49.970;11.062;2024-02-23T17:36:47;5.30;98.00
40249;DHT22;25969;49.970;11.062;2024-02-23T17:46:47;5.20;98.60
40249;DHT22;25969;49.970;11.062;2024-02-23T17:56:48;5.30;99.30
40249;DHT22;25969;49.970;11.062;2024-02-23T18:06:50;5.20;99.90
40249;DHT22;25969;49.970;11.062;2024-02-23T18:16:51;5.00;99.90
40249;DHT22;25969;49.970;11.062;2024-02-23T18:26:51;5.20;99.90
40249;DHT22;25969;49.970;11.062;2024-02-23T18:36:52;5.10;99.90
40249;DHT22;25969;49.970;11.062;2024-02-23T18:46:54;5.20;99.90
40249;DHT22;25969;49.970;11.062;2024-02-23T18:56:54;5.20;99.90
40249;DHT22;25969;49.970;11.062;2024-02-23T19:06:55;5.70;99.90
40249;DHT22;25969;49.970;11.062;2024-02-23T19:16:56;5.40;99.50
40249;DHT22;25969;49.970;11.062;2024-02-23T19:26:57;5.20;98.80
40249;DHT22;25969;49.970;11.062;2024-02-23T19:36:58;5.00;99.70
40249;DHT22;25969;49.970;11.062;2024-02-23T19:46:59;4.90;99.90
40249;DHT22;25969;49.970;11.062;2024-02-23T19:57:00;4.60;99.90
40249;DHT22;25969;49.970;11.062;2024-02-23T20:07:01;4.90;99.90
40249;DHT22;25969;49.970;11.062;2024-02-23T20:17:07;4.80;99.90
40249;DHT22;25969;49.970;11.062;2024-02-23T20:27:09;4.90;99.90
40249;DHT22;25969;49.970;11.062;2024-02-23T20:37:10;4.70;99.90
40249;DHT22;25969;49.970;11.062;2024-02-23T20:47:10;5.20;99.90
40249;DHT22;25969;49.970;11.062;2024-02-23T20:57:11;4.80;99.90
40249;DHT22;25969;49.970;11.062;2024-02-23T21:07:12;4.80;99.90
40249;DHT22;25969;49.970;11.062;2024-02-23T21:17:14;4.60;99.90
40249;DHT22;25969;49.970;11.062;2024-02-23T21:27:15;4.60;99.90
40249;DHT22;25969;49.970;11.062;2024-02-23T21:37:16;4.60;99.90
40249;DHT22;25969;49.970;11.062;2024-02-23T21:47:19;4.40;99.90
40249;DHT22;25969;49.970;11.062;2024-02-23T21:57:19;4.60;99.90
40249;DHT22;25969;49.970;11.062;2024-02-23T22:07:25;4.50;99.90
40249;DHT22;25969;49.970;11.062;2024-02-23T22:17:26;4.80;99.70
40249;DHT22;25969;49.970;11.062;2024-02-23T22:27:40;4.80;99.40
40249;DHT22;25969;49.970;11.062;2024-02-23T22:37:40;4.70;99.20
40249;DHT22;25969;49.970;11.062;2024-02-23T22:47:41;4.60;99.20
40249;DHT22;25969;49.970;11.062;2024-02-23T22:57:42;4.50;99.40
